10/02/2019 - State Farm Arena, Atlanta, GA. Temporada Regular

Atlanta Hawks - 108

Orlando Magic - 124

  • Árbitros: Sean Wright,Brent Barnaky,Ray Acosta
  • Asistencia: 13370 espectadores
  • Duración del partido: 2:03 horas
  • Número de empates durante el partido: 1
  • Cambios de líder: 4 veces

Dobles-Dobles

Tabla estadísticas

Orlando Magic - 124
Jugador Min TC T3 TL +/- rebO rebD reb asis fp rob per tap tr Val ptos
Jarell Martin 7:40 2/5 2/4 0/0 -1 0 3 3 0 1 0 1 0 0 5 6
Amile Jefferson 3:27 0/0 0/0 0/0 -7 0 1 1 0 1 0 0 0 0 1 0
Melvin Frazier 3:27 0/0 0/0 0/0 -7 1 0 1 0 1 0 0 0 0 1 0
Jerian Grant 3:27 1/4 1/4 0/0 -7 0 0 0 0 0 0 0 0 0 0 3
Evan Fournier 33:41 6/12 1/3 4/4 19 0 3 3 7 3 1 1 0 0 21 17
Nikola Vucevic 28:44 8/13 1/2 2/2 15 4 8 12 3 2 0 1 1 0 29 19
Jonathan Isaac 27:57 6/12 3/7 2/2 15 1 2 3 0 2 2 0 5 0 21 17
Aaron Gordon 25:44 4/9 2/5 2/4 9 0 3 3 3 4 0 1 1 0 11 12
DJ Augustin 25:13 6/9 1/2 1/2 12 0 3 3 10 1 1 0 0 0 24 14
Terrence Ross 23:38 4/12 2/7 8/8 9 0 6 6 2 0 0 1 0 0 17 18
Isaiah Briscoe 22:47 1/8 0/3 0/0 4 0 0 0 2 3 0 1 0 0 -4 2
Wes Iwundu 18:26 3/5 0/0 4/4 11 3 4 7 2 3 0 1 1 0 17 10
Khem Birch 15:49 2/2 0/0 2/2 8 2 5 7 0 0 0 1 1 0 13 6
Total / / / 80 156
Atlanta Hawks - 108
Jugador Min TC T3 TL +/- rebO rebD reb asis fp rob per tap tr Val ptos
Justin Anderson 9:18 2/4 0/1 1/1 8 0 3 3 1 0 0 0 0 0 7 5
Kevin Huerter 28:20 6/11 2/5 1/2 -18 0 3 3 2 0 1 1 0 0 14 15
Omari Spellman 26:20 4/8 2/5 0/0 9 2 3 5 2 1 1 0 0 0 14 10
Trae Young 26:05 3/9 2/4 5/5 -25 1 4 5 7 2 0 3 0 0 16 13
John Collins 24:49 5/12 0/2 5/5 -22 2 2 4 2 2 0 1 1 0 14 15
Dewayne Dedmon 24:05 2/6 1/4 0/0 -20 0 6 6 0 1 0 1 0 0 6 5
Taurean Prince 23:57 3/5 2/3 0/0 -18 0 1 1 3 2 1 1 2 0 12 8
Jeremy Lin 21:55 4/9 2/3 2/2 9 0 3 3 4 3 0 1 1 0 14 12
DeAndre Bembry 19:40 1/3 0/1 0/0 2 0 1 1 1 3 0 0 1 0 3 2
Alex Len 19:22 4/7 2/3 6/8 1 0 2 2 1 4 0 1 1 0 14 16
Kent Bazemore 16:09 3/6 0/1 1/2 -6 0 0 0 4 3 2 2 0 0 7 7
Total / / / -80 121



temporada 201819

Calendario por equipos

Selecciona equipo NBA y tipo partidos

enfrentamientos equipos

Selecciona enfrentamiento equipos NBA